EQY weather

Charlotte-Monroe Executive Airport
Monroe, North Carolina, United States

Public forecast

Using degrees Fahrenheit for public forecast. Weather courtesy of forecast.io.

METAR (pilot weather report)

Retrieved 2018/06/21 00:53 UTC (50 minutes ago):

KEQY 210053Z AUTO 00000KT 8SM CLR 24/22 A2985 RMK AO2 LTG DSNT S RAE2358 TSE07 SLP103 P0000 T02390217

TAF (pilot weather forecast)

Forecast is more than 12 hours old.

Closest forecast is Charlotte Douglas International Airport, 19.7 nm (36.5 km) NW. Retrieved 2018/06/20 00:27 UTC (1 day ago):

TAF KCLT 202324Z 2100/2206 25004KT P6SM SCT060 BKN150 FM210400 26003KT P6SM SCT080 FM210800 30003KT 6SM BR SCT120 FM211500 28007KT P6SM SCT060 BKN150 FM211800 26008KT P6SM BKN060 PROB30 2118/2124 4SM -TSRA OVC035CB